createdAt,value
2023-04-22T00:01:02.566Z,94679.25
2023-04-22T00:03:29.613Z,94679.13
2023-04-22T00:05:56.927Z,94657.69
2023-04-22T00:08:23.732Z,94670.53
2023-04-22T00:10:50.300Z,94653.91
2023-04-22T00:13:16.881Z,94684.38
2023-04-22T00:15:43.518Z,94686.03
2023-04-22T00:18:14.137Z,94680.44
2023-04-22T00:20:44.274Z,94677.16
2023-04-22T00:23:12.078Z,94685.72
2023-04-22T00:25:39.993Z,94685.19
2023-04-22T00:28:07.052Z,94681.22
2023-04-22T00:30:33.669Z,94687.97
2023-04-22T00:33:00.428Z,94692.34
2023-04-22T00:35:27.444Z,94664.34
2023-04-22T00:37:54.111Z,94666.88
2023-04-22T00:40:21.733Z,94684.47
2023-04-22T00:42:51.088Z,94685.34
2023-04-22T00:45:19.816Z,94685.47
2023-04-22T00:47:47.110Z,94682.34
2023-04-22T00:50:14.258Z,94673.00
2023-04-22T00:52:41.062Z,94693.69
2023-04-22T00:55:08.636Z,94690.59
2023-04-22T00:57:36.111Z,94699.78
2023-04-22T01:00:04.678Z,94697.81
2023-04-22T01:02:31.806Z,94688.63
2023-04-22T01:04:59.501Z,94679.69
2023-04-22T01:07:26.200Z,94692.69
2023-04-22T01:09:53.271Z,94687.53
2023-04-22T01:12:19.913Z,94689.69
2023-04-22T01:14:46.608Z,94696.16
2023-04-22T01:17:14.452Z,94680.59
2023-04-22T01:19:42.614Z,94690.56
2023-04-22T01:22:12.683Z,94680.41
2023-04-22T01:24:40.057Z,94686.78
2023-04-22T01:27:07.362Z,94687.75
2023-04-22T01:29:35.910Z,94666.38
2023-04-22T01:32:04.361Z,94683.13
2023-04-22T01:34:31.970Z,94696.16
2023-04-22T01:36:58.737Z,94701.56
2023-04-22T01:39:25.445Z,94700.06
2023-04-22T01:41:52.425Z,94681.91
2023-04-22T01:44:19.887Z,94697.56
2023-04-22T01:46:46.555Z,94685.91
2023-04-22T01:49:13.112Z,94687.75
2023-04-22T01:51:40.056Z,94682.66
2023-04-22T01:54:07.207Z,94684.03
2023-04-22T01:56:33.858Z,94667.41
2023-04-22T01:59:00.623Z,94684.69
2023-04-22T02:01:27.262Z,94689.97
2023-04-22T02:03:53.985Z,94686.31
2023-04-22T02:06:20.628Z,94692.91
2023-04-22T02:08:47.335Z,94690.84
2023-04-22T02:11:13.965Z,94686.72
2023-04-22T02:13:41.500Z,94659.97
2023-04-22T02:16:08.676Z,94679.84
2023-04-22T02:18:35.489Z,94685.78
2023-04-22T02:21:02.686Z,94682.41
2023-04-22T02:23:29.594Z,94683.53
2023-04-22T02:25:56.441Z,94684.56
2023-04-22T02:28:23.223Z,94686.13
2023-04-22T02:30:49.886Z,94678.56
2023-04-22T02:33:16.522Z,94669.38
2023-04-22T02:35:43.085Z,94689.16
2023-04-22T02:38:10.805Z,94678.13
2023-04-22T02:40:37.575Z,94685.69
2023-04-22T02:43:04.602Z,94681.00
2023-04-22T02:45:31.238Z,94684.22
2023-04-22T02:47:58.001Z,94694.69
2023-04-22T02:50:24.793Z,94688.19
2023-04-22T02:52:51.499Z,94699.53
2023-04-22T02:55:18.244Z,94689.78
2023-04-22T02:57:44.896Z,94687.50
2023-04-22T03:00:11.755Z,94685.22
2023-04-22T03:02:39.040Z,94700.69
2023-04-22T03:05:06.188Z,94696.31
2023-04-22T03:07:32.812Z,94687.19
2023-04-22T03:09:59.471Z,94697.31
2023-04-22T03:12:26.087Z,94711.31
2023-04-22T03:14:52.722Z,94707.66
2023-04-22T03:17:19.674Z,94698.91
2023-04-22T03:19:47.446Z,94704.63
2023-04-22T03:22:14.066Z,94711.63
2023-04-22T03:24:40.662Z,94701.31
2023-04-22T03:27:07.311Z,94710.00
2023-04-22T03:29:34.545Z,94713.75
2023-04-22T03:32:01.241Z,94714.13
2023-04-22T03:34:27.965Z,94707.59
2023-04-22T03:36:54.552Z,94707.94
2023-04-22T03:39:21.218Z,94720.00
2023-04-22T03:41:47.875Z,94715.78
2023-04-22T03:44:14.576Z,94716.06
2023-04-22T03:46:41.313Z,94718.63
2023-04-22T03:49:08.462Z,94712.69
2023-04-22T03:51:35.044Z,94717.34
2023-04-22T03:54:01.715Z,94719.31
2023-04-22T03:56:28.431Z,94706.38
2023-04-22T03:58:55.012Z,94720.38
2023-04-22T04:01:21.668Z,94733.66
2023-04-22T04:03:48.759Z,94739.91
2023-04-22T04:06:15.674Z,94740.16
2023-04-22T04:08:42.276Z,94743.06
2023-04-22T04:11:09.746Z,94734.50
2023-04-22T04:13:36.466Z,94740.84
2023-04-22T04:16:04.275Z,94739.09
2023-04-22T04:18:30.976Z,94744.28
2023-04-22T04:20:57.600Z,94751.38
2023-04-22T04:23:24.142Z,94745.94
2023-04-22T04:25:51.982Z,94757.81
2023-04-22T04:28:19.393Z,94753.16
2023-04-22T04:30:46.174Z,94757.56
2023-04-22T04:33:13.004Z,94769.22
2023-04-22T04:35:41.756Z,94767.66
2023-04-22T04:38:08.395Z,94758.88
2023-04-22T04:40:35.518Z,94768.00
2023-04-22T04:43:02.734Z,94766.38
2023-04-22T04:45:30.174Z,94773.69
2023-04-22T04:47:56.940Z,94751.44
2023-04-22T04:50:23.892Z,94782.00
2023-04-22T04:52:52.795Z,94770.88
2023-04-22T04:55:19.645Z,94789.03
2023-04-22T04:57:46.783Z,94798.97
2023-04-22T05:00:16.812Z,94797.16
2023-04-22T05:02:43.668Z,94794.63
2023-04-22T05:05:10.548Z,94796.59
2023-04-22T05:07:37.267Z,94781.72
2023-04-22T05:10:04.404Z,94791.53
2023-04-22T05:12:31.174Z,94784.19
2023-04-22T05:14:57.881Z,94802.44
2023-04-22T05:17:24.949Z,94788.69
2023-04-22T05:19:51.555Z,94803.03
2023-04-22T05:22:18.372Z,94815.31
2023-04-22T05:24:45.020Z,94805.56
2023-04-22T05:27:12.178Z,94807.63
2023-04-22T05:29:38.960Z,94808.84
2023-04-22T05:32:08.161Z,94797.91
2023-04-22T05:34:35.858Z,94808.81
2023-04-22T05:37:03.790Z,94813.13
2023-04-22T05:39:30.451Z,94806.44
2023-04-22T05:41:57.419Z,94797.28
2023-04-22T05:44:24.208Z,94810.06
2023-04-22T05:46:50.824Z,94807.19
2023-04-22T05:49:17.438Z,94806.81
2023-04-22T05:51:44.110Z,94810.59
2023-04-22T05:54:10.783Z,94806.53
2023-04-22T05:56:37.499Z,94805.84
2023-04-22T05:59:04.104Z,94809.34
2023-04-22T06:01:30.875Z,94787.69
2023-04-22T06:03:58.030Z,94803.50
2023-04-22T06:06:24.988Z,94798.75
2023-04-22T06:08:51.754Z,94790.78
2023-04-22T06:11:18.538Z,94795.63
2023-04-22T06:13:45.369Z,94806.16
2023-04-22T06:16:12.139Z,94794.66
2023-04-22T06:18:38.862Z,94803.63
2023-04-22T06:21:05.594Z,94804.59
2023-04-22T06:23:32.236Z,94803.25
2023-04-22T06:25:58.869Z,94794.84
2023-04-22T06:28:25.603Z,94795.59
2023-04-22T06:30:52.210Z,94800.13
2023-04-22T06:33:18.866Z,94808.06
2023-04-22T06:35:46.186Z,94803.63
2023-04-22T06:38:13.276Z,94801.03
2023-04-22T06:40:40.136Z,94800.09
2023-04-22T06:43:07.018Z,94804.28
2023-04-22T06:45:33.670Z,94799.88
2023-04-22T06:48:00.474Z,94804.31
2023-04-22T06:50:27.465Z,94807.06
2023-04-22T06:52:54.921Z,94806.91
2023-04-22T06:55:21.809Z,94806.94
2023-04-22T06:57:48.572Z,94805.81
2023-04-22T07:00:15.550Z,94815.63
2023-04-22T07:02:42.353Z,94812.47
2023-04-22T07:05:09.239Z,94812.75
2023-04-22T07:07:36.490Z,94810.03
2023-04-22T07:10:03.801Z,94817.88
2023-04-22T07:12:30.745Z,94800.72
2023-04-22T07:14:57.445Z,94811.22
2023-04-22T07:17:24.262Z,94810.81
2023-04-22T07:19:51.032Z,94805.88
2023-04-22T07:22:17.702Z,94812.47
2023-04-22T07:24:44.413Z,94805.94
2023-04-22T07:27:11.089Z,94801.53
2023-04-22T07:29:38.002Z,94810.91
2023-04-22T07:32:05.294Z,94815.97
2023-04-22T07:34:32.091Z,94806.44
2023-04-22T07:36:58.755Z,94805.72
2023-04-22T07:39:25.478Z,94799.19
2023-04-22T07:41:53.254Z,94810.94
2023-04-22T07:44:21.740Z,94804.22
2023-04-22T07:46:50.349Z,94801.22
2023-04-22T07:49:17.340Z,94806.44
2023-04-22T07:51:45.024Z,94792.94
2023-04-22T07:54:12.485Z,94809.69
2023-04-22T07:56:39.151Z,94807.44
2023-04-22T07:59:06.225Z,94799.66
2023-04-22T08:01:32.838Z,94808.19
2023-04-22T08:03:59.751Z,94798.38
2023-04-22T08:06:28.238Z,94794.34
2023-04-22T08:08:55.021Z,94801.56
2023-04-22T08:11:21.729Z,94798.56
2023-04-22T08:13:48.625Z,94791.16
2023-04-22T08:16:15.514Z,94785.94
2023-04-22T08:18:42.136Z,94782.00
2023-04-22T08:21:09.011Z,94796.75
2023-04-22T08:23:35.631Z,94793.69
2023-04-22T08:26:03.450Z,94790.50
2023-04-22T08:28:30.548Z,94787.81
2023-04-22T08:30:57.236Z,94771.78
2023-04-22T08:33:25.319Z,94771.88
2023-04-22T08:35:53.688Z,94786.16
2023-04-22T08:38:20.373Z,94775.16
2023-04-22T08:40:47.935Z,94770.28
2023-04-22T08:43:15.144Z,94760.28
2023-04-22T08:45:42.718Z,94773.78
2023-04-22T08:48:09.891Z,94763.75
2023-04-22T08:50:41.415Z,94765.19
2023-04-22T08:53:08.039Z,94760.38
2023-04-22T08:55:36.461Z,94766.59
2023-04-22T08:58:06.248Z,94757.94
2023-04-22T09:00:34.868Z,94753.13
2023-04-22T09:03:03.822Z,94756.50
2023-04-22T09:05:33.973Z,94760.97
2023-04-22T09:08:02.263Z,94752.78
2023-04-22T09:10:31.073Z,94750.88
2023-04-22T09:12:59.079Z,94746.81
2023-04-22T09:15:26.185Z,94758.88
2023-04-22T09:17:53.048Z,94754.59
2023-04-22T09:20:20.004Z,94753.28
2023-04-22T09:22:47.915Z,94746.00
2023-04-22T09:25:19.381Z,94756.06
2023-04-22T09:27:55.379Z,94749.22
2023-04-22T09:30:34.000Z,94743.16
2023-04-22T09:33:03.910Z,94744.28
2023-04-22T09:35:31.714Z,94733.13
2023-04-22T09:38:00.299Z,94731.16
2023-04-22T09:40:28.385Z,94737.28
2023-04-22T09:42:57.062Z,94733.44
2023-04-22T09:45:27.348Z,94732.41
2023-04-22T09:47:55.874Z,94735.16
2023-04-22T09:50:25.895Z,94739.03
2023-04-22T09:52:58.820Z,94736.72
2023-04-22T09:55:27.235Z,94741.34
2023-04-22T09:57:55.739Z,94739.69
2023-04-22T10:00:29.554Z,94743.41
2023-04-22T10:02:56.341Z,94735.47
2023-04-22T10:05:22.931Z,94731.69
2023-04-22T10:07:50.211Z,94726.44
2023-04-22T10:10:17.015Z,94725.50
2023-04-22T10:12:44.523Z,94719.47
2023-04-22T10:15:11.525Z,94722.22
2023-04-22T10:17:39.177Z,94718.97
2023-04-22T10:20:16.078Z,94720.59
2023-04-22T10:22:43.320Z,94705.94
2023-04-22T10:25:21.567Z,94711.59
2023-04-22T10:28:06.014Z,94706.53
2023-04-22T10:30:36.759Z,94700.41
2023-04-22T10:33:21.721Z,94698.25
2023-04-22T10:36:20.216Z,94694.56
2023-04-22T10:38:56.065Z,94697.06
2023-04-22T10:41:33.789Z,94702.91
2023-04-22T10:44:05.802Z,94701.41
2023-04-22T10:46:37.127Z,94684.13
2023-04-22T10:49:12.298Z,94701.53
2023-04-22T10:51:43.938Z,94700.66
2023-04-22T10:54:28.077Z,94690.53
2023-04-22T10:57:04.143Z,94688.91
2023-04-22T10:59:31.801Z,94675.38
2023-04-22T11:02:17.659Z,94685.19
2023-04-22T11:04:44.348Z,94687.56
2023-04-22T11:07:23.131Z,94686.06
2023-04-22T11:10:07.048Z,94676.47
2023-04-22T11:12:39.682Z,94691.94
2023-04-22T11:15:10.252Z,94707.16
2023-04-22T11:17:38.738Z,94698.47
2023-04-22T11:20:07.231Z,94700.75
2023-04-22T11:22:38.917Z,94705.25
2023-04-22T11:25:06.608Z,94723.47
2023-04-22T11:27:33.420Z,94716.97
2023-04-22T11:30:07.712Z,94717.47
2023-04-22T11:32:39.054Z,94741.22
2023-04-22T11:35:07.792Z,94722.47
2023-04-22T11:37:45.977Z,94743.72
2023-04-22T11:40:29.269Z,94730.22
2023-04-22T11:42:58.939Z,94744.66
2023-04-22T11:45:27.205Z,94751.72
2023-04-22T11:47:54.362Z,94771.19
2023-04-22T11:50:29.286Z,94742.72
2023-04-22T11:53:04.680Z,94742.72
2023-04-22T11:55:36.353Z,94758.22
2023-04-22T11:58:15.472Z,94746.72
2023-04-22T12:00:50.897Z,94745.19
2023-04-22T12:03:18.635Z,94780.38
2023-04-22T12:06:00.952Z,94757.56
2023-04-22T12:08:42.172Z,94764.19
2023-04-22T12:11:11.215Z,94766.09
2023-04-22T12:13:38.122Z,94764.34
2023-04-22T12:16:09.967Z,94773.47
2023-04-22T12:18:39.224Z,94769.53
2023-04-22T12:21:11.257Z,94761.69
2023-04-22T12:23:48.887Z,94795.03
2023-04-22T12:26:17.247Z,94770.25
2023-04-22T12:28:44.896Z,94789.00
2023-04-22T12:31:12.826Z,94762.25
2023-04-22T12:33:40.105Z,94770.72
2023-04-22T12:36:07.360Z,94770.53
2023-04-22T12:38:34.801Z,94757.47
2023-04-22T12:41:02.966Z,94759.94
2023-04-22T12:43:29.950Z,94783.19
2023-04-22T12:45:56.562Z,94755.91
2023-04-22T12:48:23.216Z,94757.97
2023-04-22T12:50:50.037Z,94759.16
2023-04-22T12:53:16.758Z,94756.78
2023-04-22T12:55:45.864Z,94745.75
2023-04-22T12:58:13.187Z,94752.09
2023-04-22T13:00:40.799Z,94755.44
2023-04-22T13:03:07.611Z,94748.91
2023-04-22T13:05:34.637Z,94741.59
2023-04-22T13:08:07.291Z,94761.88
2023-04-22T13:10:35.100Z,94745.63
2023-04-22T13:13:16.752Z,94731.06
2023-04-22T13:15:53.804Z,94730.13
2023-04-22T13:18:22.897Z,94742.47
2023-04-22T13:20:49.869Z,94740.78
2023-04-22T13:23:17.487Z,94741.06
2023-04-22T13:25:44.465Z,94730.78
2023-04-22T13:28:11.639Z,94736.38
2023-04-22T13:30:39.830Z,94717.44
2023-04-22T13:33:06.675Z,94741.34
2023-04-22T13:35:33.347Z,94743.56
2023-04-22T13:38:00.043Z,94735.34
2023-04-22T13:40:29.875Z,94740.44
2023-04-22T13:42:56.552Z,94732.22
2023-04-22T13:45:23.367Z,94738.94
2023-04-22T13:47:50.636Z,94722.97
2023-04-22T13:50:17.264Z,94745.97
2023-04-22T13:52:44.079Z,94749.72
2023-04-22T13:55:10.956Z,94697.47
2023-04-22T13:57:37.636Z,94723.47
2023-04-22T14:00:05.474Z,94684.78
2023-04-22T14:02:32.319Z,94746.47
2023-04-22T14:04:59.297Z,94683.00
2023-04-22T14:07:25.989Z,94681.03
2023-04-22T14:09:52.700Z,94687.00
2023-04-22T14:12:19.485Z,94736.66
2023-04-22T14:14:46.234Z,94727.91
2023-04-22T14:17:13.044Z,94682.22
2023-04-22T14:19:40.090Z,94724.06
2023-04-22T14:22:07.108Z,94711.31
2023-04-22T14:24:33.978Z,94704.78
2023-04-22T14:27:03.923Z,94688.22
2023-04-22T14:29:31.937Z,94715.25
2023-04-22T14:31:58.936Z,94686.25
2023-04-22T14:34:27.332Z,94719.47
2023-04-22T14:36:54.320Z,94715.25
2023-04-22T14:39:21.678Z,94658.53
2023-04-22T14:41:49.059Z,94669.03
2023-04-22T14:44:19.004Z,94715.97
2023-04-22T14:46:45.802Z,94647.53
2023-04-22T14:49:12.626Z,94698.69
2023-04-22T14:51:39.393Z,94696.44
2023-04-22T14:54:06.273Z,94714.94
2023-04-22T14:56:32.886Z,94702.25
2023-04-22T14:58:59.586Z,94700.72
2023-04-22T15:01:26.502Z,94730.97
2023-04-22T15:03:53.557Z,94734.72
2023-04-22T15:06:20.343Z,94742.44
2023-04-22T15:08:47.011Z,94733.22
2023-04-22T15:11:13.662Z,94725.97
2023-04-22T15:13:40.685Z,94719.47
2023-04-22T15:16:07.478Z,94690.75
2023-04-22T15:18:34.185Z,94729.22
2023-04-22T15:21:03.165Z,94731.22
2023-04-22T15:23:29.899Z,94748.22
2023-04-22T15:25:56.661Z,94737.22
2023-04-22T15:28:24.673Z,94737.97
2023-04-22T15:30:51.383Z,94720.72
2023-04-22T15:33:18.113Z,94674.22
2023-04-22T15:35:50.005Z,94744.69
2023-04-22T15:38:17.529Z,94731.47
2023-04-22T15:40:44.301Z,94695.19
2023-04-22T15:43:11.450Z,94734.69
2023-04-22T15:45:38.123Z,94747.66
2023-04-22T15:48:05.943Z,94741.91
2023-04-22T15:50:32.843Z,94742.63
2023-04-22T15:52:59.458Z,94765.63
2023-04-22T15:55:26.219Z,94710.66
2023-04-22T15:57:52.952Z,94749.66
2023-04-22T16:00:19.868Z,94719.66
2023-04-22T16:02:54.990Z,94764.59
2023-04-22T16:05:26.057Z,94762.03
2023-04-22T16:07:53.608Z,94750.47
2023-04-22T16:10:20.743Z,94768.00
2023-04-22T16:12:47.572Z,94752.44
2023-04-22T16:15:14.430Z,94773.97
2023-04-22T16:17:41.642Z,94756.75
2023-04-22T16:20:09.590Z,94711.94
2023-04-22T16:22:37.062Z,94736.38
2023-04-22T16:25:04.273Z,94719.53
2023-04-22T16:27:31.888Z,94781.63
2023-04-22T16:29:58.565Z,94775.47
2023-04-22T16:32:25.253Z,94770.31
2023-04-22T16:34:51.961Z,94756.44
2023-04-22T16:37:18.648Z,94780.06
2023-04-22T16:39:45.470Z,94786.56
2023-04-22T16:42:12.290Z,94797.72
2023-04-22T16:44:39.038Z,94797.88
2023-04-22T16:47:05.710Z,94782.56
2023-04-22T16:49:32.304Z,94784.38
2023-04-22T16:51:59.067Z,94799.03
2023-04-22T16:54:25.937Z,94808.75
2023-04-22T16:56:52.795Z,94798.97
2023-04-22T16:59:19.563Z,94781.41
2023-04-22T17:01:46.335Z,94753.38
2023-04-22T17:04:13.646Z,94740.94
2023-04-22T17:06:41.114Z,94816.75
2023-04-22T17:09:09.177Z,94826.94
2023-04-22T17:11:35.881Z,94820.72
2023-04-22T17:14:02.608Z,94816.00
2023-04-22T17:16:29.528Z,94835.50
2023-04-22T17:18:56.258Z,94844.63
2023-04-22T17:21:27.156Z,94834.44
2023-04-22T17:23:53.890Z,94832.41
2023-04-22T17:26:20.688Z,94846.13
2023-04-22T17:28:47.421Z,94844.38
2023-04-22T17:31:14.077Z,94829.81
2023-04-22T17:33:41.232Z,94830.94
2023-04-22T17:36:07.986Z,94836.16
2023-04-22T17:38:34.889Z,94814.91
2023-04-22T17:41:01.691Z,94846.25
2023-04-22T17:43:28.523Z,94846.25
2023-04-22T17:45:55.472Z,94844.47
2023-04-22T17:48:22.163Z,94847.84
2023-04-22T17:50:48.984Z,94858.25
2023-04-22T17:53:15.625Z,94818.63
2023-04-22T17:55:42.341Z,94860.44
2023-04-22T17:58:09.098Z,94846.50
2023-04-22T18:00:37.243Z,94857.63
2023-04-22T18:03:05.636Z,94865.38
2023-04-22T18:05:32.383Z,94858.78
2023-04-22T18:08:02.690Z,94861.09
2023-04-22T18:10:30.308Z,94845.69
2023-04-22T18:12:57.160Z,94836.91
2023-04-22T18:15:23.973Z,94895.75
2023-04-22T18:17:51.247Z,94845.38
2023-04-22T18:20:19.599Z,94895.84
2023-04-22T18:22:52.176Z,94896.78
2023-04-22T18:25:19.258Z,94894.50
2023-04-22T18:27:46.416Z,94875.47
2023-04-22T18:30:13.318Z,94876.22
2023-04-22T18:32:40.063Z,94869.63
2023-04-22T18:35:07.574Z,94910.41
2023-04-22T18:37:34.957Z,94924.53
2023-04-22T18:40:02.637Z,94926.19
2023-04-22T18:42:29.900Z,94840.59
2023-04-22T18:44:56.699Z,94869.88
2023-04-22T18:47:23.590Z,94917.03
2023-04-22T18:49:50.550Z,94882.53
2023-04-22T18:52:17.983Z,94881.09
2023-04-22T18:54:45.139Z,94872.91
2023-04-22T18:57:11.941Z,94852.09
2023-04-22T18:59:38.818Z,94889.09
2023-04-22T19:02:05.877Z,94894.13
2023-04-22T19:04:32.781Z,94939.47
2023-04-22T19:06:59.706Z,94860.81
2023-04-22T19:09:26.479Z,94941.81
2023-04-22T19:11:53.167Z,94904.25
2023-04-22T19:14:19.885Z,94905.03
2023-04-22T19:16:46.540Z,94932.69
2023-04-22T19:19:13.296Z,94874.84
2023-04-22T19:21:40.170Z,94951.28
2023-04-22T19:24:07.090Z,94898.88
2023-04-22T19:26:34.391Z,94938.19
2023-04-22T19:29:01.154Z,94911.72
2023-04-22T19:31:28.997Z,94939.69
2023-04-22T19:33:55.943Z,94864.00
2023-04-22T19:36:22.818Z,94942.84
2023-04-22T19:38:49.672Z,94961.72
2023-04-22T19:41:16.730Z,94844.81
2023-04-22T19:43:43.618Z,94936.19
2023-04-22T19:46:10.572Z,94936.50
2023-04-22T19:48:37.756Z,94936.50
2023-04-22T19:51:06.407Z,94932.53
2023-04-22T19:53:33.995Z,94917.44
2023-04-22T19:56:00.965Z,94921.97
2023-04-22T19:58:30.901Z,94890.59
2023-04-22T20:00:57.842Z,94922.16
2023-04-22T20:03:25.214Z,94949.66
2023-04-22T20:05:52.309Z,94873.09
2023-04-22T20:08:19.863Z,94914.59
2023-04-22T20:10:49.804Z,94941.97
2023-04-22T20:13:17.500Z,94948.81
2023-04-22T20:15:44.701Z,94938.81
2023-04-22T20:18:12.024Z,94946.88
2023-04-22T20:20:40.798Z,94937.47
2023-04-22T20:23:12.763Z,94942.63
2023-04-22T20:25:44.361Z,94903.94
2023-04-22T20:28:11.504Z,94915.88
2023-04-22T20:30:38.434Z,94935.34
2023-04-22T20:33:05.537Z,94935.84
2023-04-22T20:35:32.533Z,94948.25
2023-04-22T20:38:00.222Z,94920.44
2023-04-22T20:40:27.338Z,94944.78
2023-04-22T20:42:57.531Z,94938.13
2023-04-22T20:45:24.839Z,94935.56
2023-04-22T20:47:51.548Z,94936.63
2023-04-22T20:50:27.890Z,94932.41
2023-04-22T20:52:54.538Z,94932.41
2023-04-22T20:55:21.829Z,94930.44
2023-04-22T20:57:48.446Z,94945.25
2023-04-22T21:00:16.082Z,94950.53
2023-04-22T21:02:43.753Z,94951.16
2023-04-22T21:05:11.368Z,94943.16
2023-04-22T21:07:39.561Z,94960.09
2023-04-22T21:10:07.586Z,94954.94
2023-04-22T21:12:34.532Z,94944.22
2023-04-22T21:15:01.469Z,94945.72
2023-04-22T21:17:31.797Z,94911.28
2023-04-22T21:19:59.320Z,94951.47
2023-04-22T21:22:26.298Z,94930.59
2023-04-22T21:24:53.970Z,94939.69
2023-04-22T21:27:22.350Z,94943.16
2023-04-22T21:29:49.945Z,94935.56
2023-04-22T21:32:17.421Z,94932.09
2023-04-22T21:34:44.855Z,94939.22
2023-04-22T21:37:12.181Z,94943.16
2023-04-22T21:39:40.020Z,94944.03
2023-04-22T21:42:09.933Z,94943.28
2023-04-22T21:44:38.156Z,94859.84
2023-04-22T21:47:05.516Z,94956.00
2023-04-22T21:49:32.168Z,94954.47
2023-04-22T21:51:59.694Z,94944.19
2023-04-22T21:54:26.511Z,94939.50
2023-04-22T21:56:53.253Z,94960.97
2023-04-22T21:59:19.888Z,94958.69
2023-04-22T22:01:46.796Z,94952.47
2023-04-22T22:04:16.141Z,94957.78
2023-04-22T22:06:43.374Z,94957.50
2023-04-22T22:09:11.848Z,94948.13
2023-04-22T22:11:38.513Z,94931.03
2023-04-22T22:14:05.262Z,94924.97
2023-04-22T22:16:33.318Z,94966.25
2023-04-22T22:19:02.735Z,94969.72
2023-04-22T22:21:29.624Z,94950.81
2023-04-22T22:23:57.826Z,94921.94
2023-04-22T22:26:24.693Z,94966.69
2023-04-22T22:28:51.450Z,94950.50
2023-04-22T22:31:18.159Z,94937.44
2023-04-22T22:33:45.109Z,94975.69
2023-04-22T22:36:11.952Z,94968.72
2023-04-22T22:38:38.728Z,94973.06
2023-04-22T22:41:05.455Z,94972.16
2023-04-22T22:43:32.182Z,94967.63
2023-04-22T22:45:58.907Z,94965.66
2023-04-22T22:48:25.665Z,94977.09
2023-04-22T22:50:53.040Z,94966.03
2023-04-22T22:53:19.844Z,94971.16
2023-04-22T22:55:46.556Z,94958.03
2023-04-22T22:58:13.169Z,94943.91
2023-04-22T23:00:39.761Z,94913.78
2023-04-22T23:03:06.762Z,94957.44
2023-04-22T23:05:33.599Z,94964.44
2023-04-22T23:08:00.252Z,94962.06
2023-04-22T23:10:26.946Z,94953.47
2023-04-22T23:12:53.675Z,94955.44
2023-04-22T23:15:20.411Z,94960.13
2023-04-22T23:17:47.246Z,94951.50
2023-04-22T23:20:14.366Z,94966.88
2023-04-22T23:22:42.787Z,94963.41
2023-04-22T23:25:10.331Z,94946.13
2023-04-22T23:27:37.382Z,94952.91
2023-04-22T23:30:04.819Z,94927.97
2023-04-22T23:32:33.207Z,94929.13
2023-04-22T23:35:01.765Z,94944.44
2023-04-22T23:37:29.511Z,94956.94
2023-04-22T23:39:56.262Z,94951.09
2023-04-22T23:42:23.011Z,94888.47
2023-04-22T23:44:49.913Z,94955.03
2023-04-22T23:47:16.953Z,94949.22
2023-04-22T23:49:43.872Z,94965.59
2023-04-22T23:52:13.223Z,94959.75
2023-04-22T23:54:41.404Z,94956.94
2023-04-22T23:57:08.959Z,94963.56
2023-04-22T23:59:36.348Z,94952.75
